Williamsburg, Michigan
Current Conditions -  °F | °C
As of 12:53 AM on Saturday 29 Nov 2014 (Local Time) from KTVC Reporting Station
Light Snow Light Snow  
Wind Chill: 18°   Ceiling: 1700
Heat Index: 26°   Visibility: 4mi
Dew Point: 21°   Wind: 8mph
Humidity: 81%   Direction: 150°SSE
Pressure: 29.92"   Gusts: NA
Location:  44.77°N, 85.4°W
Report Text: KTVC 290553Z AUTO 15007KT 100V170 4SM -SN BKN017 OVC024 M03/M06 A2992 RMK AO2 SNB11 SLP141 P0001 60001 T10331061 11033 21044 58026
Loading
Personal Weather Stations






























Interactive Weather Map New forecast layout! Learn more

10-Day Weather Forecast

Advertisements
Track Severe Weather on mobile